Time;durP1;ratioP1;P1;durP2;ratioP2;P2;SDS_P1;SDS_P2;PMS_P1;PMS_P2;Temp;Humidity;BMP_temperature;BMP_pressure;BME280_temperature;BME280_humidity;BME280_pressure;Samples;Min_cycle;Max_cycle;Signal;HPM_P1;HPM_P2
2022/03/03 00:01:49;;;;;;;6.20;1.40;;;;;;;;;;5067559;28;20041;-69
2022/03/03 00:04:16;;;;;;;5.00;1.20;;;;;;;;;;5066312;28;20052;-70
2022/03/03 00:06:43;;;;;;;4.77;1.40;;;;;;;;;;5065980;28;20025;-68
2022/03/03 00:09:10;;;;;;;2.10;1.30;;;;;;;;;;5068393;28;20437;-69
2022/03/03 00:11:38;;;;;;;3.93;1.47;;;;;;;;;;5072409;28;20142;-68
2022/03/03 00:14:05;;;;;;;3.23;1.57;;;;;;;;;;5075069;28;20531;-69
2022/03/03 00:16:32;;;;;;;1.93;1.20;;;;;;;;;;5075212;28;20020;-69
2022/03/03 00:18:59;;;;;;;4.47;1.30;;;;;;;;;;5074794;28;20017;-69
2022/03/03 00:21:25;;;;;;;2.70;1.20;;;;;;;;;;5075032;28;20031;-68
2022/03/03 00:23:52;;;;;;;6.43;1.70;;;;;;;;;;5071365;28;20052;-68
2022/03/03 00:26:19;;;;;;;2.57;1.30;;;;;;;;;;5068534;28;20074;-69
2022/03/03 00:28:46;;;;;;;3.43;1.50;;;;;;;;;;5069139;28;20032;-68
2022/03/03 00:31:13;;;;;;;4.43;1.77;;;;;;;;;;5069286;28;20037;-68
2022/03/03 00:33:39;;;;;;;6.03;1.43;;;;;;;;;;5072104;28;20060;-68
2022/03/03 00:36:06;;;;;;;2.50;1.67;;;;;;;;;;5074616;28;20422;-68
2022/03/03 00:38:33;;;;;;;2.00;1.40;;;;;;;;;;5074620;28;20103;-69
2022/03/03 00:41:00;;;;;;;4.17;2.20;;;;;;;;;;5074537;28;20024;-69
2022/03/03 00:43:26;;;;;;;3.20;1.57;;;;;;;;;;5074124;28;20060;-69
2022/03/03 00:45:53;;;;;;;5.77;2.53;;;;;;;;;;5071577;28;20070;-69
2022/03/03 00:48:20;;;;;;;11.83;2.30;;;;;;;;;;5068855;28;20078;-68
2022/03/03 00:50:47;;;;;;;4.47;2.03;;;;;;;;;;5069056;28;20497;-68
2022/03/03 00:53:14;;;;;;;7.93;2.20;;;;;;;;;;5068841;28;20021;-69
2022/03/03 00:55:40;;;;;;;3.40;1.80;;;;;;;;;;5070982;28;20024;-68
2022/03/03 00:58:07;;;;;;;5.13;2.80;;;;;;;;;;5073911;28;20028;-69
2022/03/03 01:00:34;;;;;;;7.97;2.63;;;;;;;;;;5074300;28;20417;-68
2022/03/03 01:03:01;;;;;;;5.37;2.53;;;;;;;;;;5074032;28;20379;-68
2022/03/03 01:05:27;;;;;;;6.27;2.33;;;;;;;;;;5073987;28;20028;-69
2022/03/03 01:07:54;;;;;;;5.17;2.20;;;;;;;;;;5071756;28;20028;-69
2022/03/03 01:10:21;;;;;;;12.17;2.40;;;;;;;;;;5068351;28;20075;-68
2022/03/03 01:12:48;;;;;;;10.13;2.30;;;;;;;;;;5068597;28;20652;-69
2022/03/03 01:15:15;;;;;;;8.47;2.20;;;;;;;;;;5068177;28;20028;-69
2022/03/03 01:17:41;;;;;;;6.97;2.40;;;;;;;;;;5069396;28;20021;-69
2022/03/03 01:20:09;;;;;;;8.00;2.50;;;;;;;;;;5072881;28;20021;-68
2022/03/03 01:22:36;;;;;;;6.33;2.40;;;;;;;;;;5073754;28;20051;-68
2022/03/03 01:25:03;;;;;;;6.30;3.03;;;;;;;;;;5073930;28;20029;-69
2022/03/03 01:27:32;;;;;;;7.17;2.73;;;;;;;;;;5073476;28;20025;-68
2022/03/03 01:30:01;;;;;;;7.00;2.53;;;;;;;;;;5071628;28;20479;-68
2022/03/03 01:32:27;;;;;;;5.13;3.00;;;;;;;;;;5067996;28;20427;-68
2022/03/03 01:34:54;;;;;;;6.53;3.83;;;;;;;;;;5067936;28;20036;-69
2022/03/03 01:37:21;;;;;;;10.10;3.80;;;;;;;;;;5068220;28;20059;-69
2022/03/03 01:39:48;;;;;;;11.93;3.93;;;;;;;;;;5068964;28;20036;-70
2022/03/03 01:42:15;;;;;;;13.97;5.07;;;;;;;;;;5073476;28;20020;-69
2022/03/03 01:44:43;;;;;;;9.77;4.23;;;;;;;;;;5073238;28;20052;-69
2022/03/03 01:47:16;;;;;;;9.27;4.20;;;;;;;;;;5073235;28;20464;-69
2022/03/03 01:49:43;;;;;;;8.97;5.53;;;;;;;;;;5072544;28;20017;-68
2022/03/03 01:52:09;;;;;;;12.23;4.77;;;;;;;;;;5071371;28;20047;-69
2022/03/03 01:54:36;;;;;;;5.53;3.80;;;;;;;;;;5067606;28;20024;-68
2022/03/03 01:57:03;;;;;;;6.73;3.57;;;;;;;;;;5067853;28;20418;-68
2022/03/03 01:59:31;;;;;;;9.80;4.40;;;;;;;;;;5067829;28;20119;-68
2022/03/03 02:01:58;;;;;;;7.87;3.50;;;;;;;;;;5068381;28;20020;-68
2022/03/03 02:04:25;;;;;;;9.00;3.97;;;;;;;;;;5072586;28;20027;-68
2022/03/03 02:06:52;;;;;;;11.83;4.63;;;;;;;;;;5088086;28;20387;-68
2022/03/03 02:09:18;;;;;;;9.90;4.10;;;;;;;;;;5072792;28;20124;-68
2022/03/03 02:11:48;;;;;;;8.40;3.57;;;;;;;;;;5072755;28;20388;-69
2022/03/03 02:14:15;;;;;;;5.13;3.00;;;;;;;;;;5071760;28;20033;-68
2022/03/03 02:16:42;;;;;;;7.17;3.07;;;;;;;;;;5067352;28;20506;-69
2022/03/03 02:19:08;;;;;;;7.07;3.00;;;;;;;;;;5067112;28;20021;-70
2022/03/03 02:21:35;;;;;;;5.40;3.00;;;;;;;;;;5066916;28;20032;-69
2022/03/03 02:24:03;;;;;;;5.70;2.73;;;;;;;;;;5067176;28;20024;-67
2022/03/03 02:26:31;;;;;;;5.00;3.03;;;;;;;;;;5072562;28;20482;-68
2022/03/03 02:28:58;;;;;;;4.70;2.60;;;;;;;;;;5071885;28;20024;-67
2022/03/03 02:31:25;;;;;;;6.63;2.80;;;;;;;;;;5072104;28;20028;-68
2022/03/03 02:33:52;;;;;;;4.83;3.17;;;;;;;;;;5072688;28;20094;-67
2022/03/03 02:36:22;;;;;;;5.90;3.07;;;;;;;;;;5071306;28;20025;-68
2022/03/03 02:38:52;;;;;;;4.60;3.00;;;;;;;;;;5067138;28;20090;-68
2022/03/03 02:41:18;;;;;;;4.10;2.77;;;;;;;;;;5066988;28;20052;-68
2022/03/03 02:43:46;;;;;;;3.60;2.37;;;;;;;;;;5066620;28;20065;-68
2022/03/03 02:46:13;;;;;;;7.37;2.40;;;;;;;;;;5067045;28;20371;-68
2022/03/03 02:48:40;;;;;;;4.63;3.33;;;;;;;;;;5072316;28;20060;-68
2022/03/03 02:51:08;;;;;;;5.83;3.13;;;;;;;;;;5071899;28;20021;-68
2022/03/03 02:53:35;;;;;;;4.70;2.73;;;;;;;;;;5071684;28;20021;-68
2022/03/03 02:56:02;;;;;;;8.60;3.73;;;;;;;;;;5072201;28;20549;-68
2022/03/03 02:58:29;;;;;;;20.63;6.87;;;;;;;;;;5071831;28;20038;-68
2022/03/03 03:00:56;;;;;;;13.97;5.43;;;;;;;;;;5066749;28;20052;-68
2022/03/03 03:03:23;;;;;;;8.87;3.53;;;;;;;;;;5066820;28;20033;-68
2022/03/03 03:05:50;;;;;;;8.57;3.93;;;;;;;;;;5066734;28;20044;-68
2022/03/03 03:08:17;;;;;;;8.47;3.33;;;;;;;;;;5065942;28;20036;-68
2022/03/03 03:10:44;;;;;;;8.00;3.20;;;;;;;;;;5072205;28;20391;-68
2022/03/03 03:13:12;;;;;;;8.40;3.90;;;;;;;;;;5072049;28;20025;-67
2022/03/03 03:15:39;;;;;;;9.67;4.37;;;;;;;;;;5072208;28;20560;-68
2022/03/03 03:18:10;;;;;;;10.43;4.33;;;;;;;;;;5071979;28;20380;-68
2022/03/03 03:20:37;;;;;;;8.73;3.80;;;;;;;;;;5071813;28;20028;-67
2022/03/03 03:23:07;;;;;;;42.73;13.87;;;;;;;;;;5066135;28;20562;-68
2022/03/03 03:25:34;;;;;;;36.77;12.63;;;;;;;;;;5066211;28;20024;-68
2022/03/03 03:28:01;;;;;;;13.40;5.80;;;;;;;;;;5066299;28;20032;-67
2022/03/03 03:30:27;;;;;;;12.30;5.40;;;;;;;;;;5065303;28;20539;-67
2022/03/03 03:32:54;;;;;;;9.53;5.07;;;;;;;;;;5071437;28;20489;-67
2022/03/03 03:35:21;;;;;;;11.10;4.00;;;;;;;;;;5072004;28;20035;-67
2022/03/03 03:37:48;;;;;;;16.57;6.80;;;;;;;;;;5071636;28;20079;-68
2022/03/03 03:40:15;;;;;;;27.63;9.93;;;;;;;;;;5072035;28;20028;-67
2022/03/03 03:42:42;;;;;;;16.87;6.97;;;;;;;;;;5071969;28;20029;-67
2022/03/03 03:45:09;;;;;;;18.27;6.90;;;;;;;;;;5068789;28;20024;-67
2022/03/03 03:47:36;;;;;;;15.00;6.30;;;;;;;;;;5070261;28;20063;-68
2022/03/03 03:50:04;;;;;;;13.07;5.50;;;;;;;;;;5070181;28;20476;-67
2022/03/03 03:52:31;;;;;;;23.97;7.73;;;;;;;;;;5070268;28;20028;-67
2022/03/03 03:54:58;;;;;;;18.10;7.40;;;;;;;;;;5073906;28;20033;-67
2022/03/03 03:57:25;;;;;;;15.13;6.17;;;;;;;;;;5075398;28;20068;-67
2022/03/03 03:59:52;;;;;;;19.37;6.73;;;;;;;;;;5075395;28;20021;-67
2022/03/03 04:02:19;;;;;;;12.13;4.93;;;;;;;;;;5075121;28;20387;-67
2022/03/03 04:04:46;;;;;;;15.27;6.13;;;;;;;;;;5075278;28;20067;-67
2022/03/03 04:07:13;;;;;;;19.00;6.43;;;;;;;;;;5070373;28;20024;-67
2022/03/03 04:09:40;;;;;;;20.40;6.27;;;;;;;;;;5069668;28;20082;-67
2022/03/03 04:12:07;;;;;;;16.43;6.57;;;;;;;;;;5069803;28;20032;-67
2022/03/03 04:14:34;;;;;;;15.40;4.97;;;;;;;;;;5069648;28;20515;-67
2022/03/03 04:17:01;;;;;;;8.93;4.70;;;;;;;;;;5073916;28;20028;-67
2022/03/03 04:19:28;;;;;;;11.77;5.30;;;;;;;;;;5073452;28;20029;-67
2022/03/03 04:21:55;;;;;;;12.40;5.80;;;;;;;;;;5074934;28;20021;-67
2022/03/03 04:24:22;;;;;;;13.87;4.70;;;;;;;;;;5074977;28;20032;-67
2022/03/03 04:26:48;;;;;;;12.10;3.77;;;;;;;;;;5074504;28;20486;-68
2022/03/03 04:29:15;;;;;;;13.13;3.83;;;;;;;;;;5070449;28;20456;-67
2022/03/03 04:31:42;;;;;;;18.53;5.33;;;;;;;;;;5069361;28;20039;-67
2022/03/03 04:34:09;;;;;;;7.10;3.73;;;;;;;;;;5069528;28;20029;-67
2022/03/03 04:36:36;;;;;;;11.17;3.90;;;;;;;;;;5067643;28;20547;-67
2022/03/03 04:39:03;;;;;;;10.07;4.90;;;;;;;;;;5072926;28;20036;-67
2022/03/03 04:41:29;;;;;;;9.80;4.90;;;;;;;;;;5074730;28;20486;-67
2022/03/03 04:43:56;;;;;;;13.40;5.03;;;;;;;;;;5073598;28;20381;-66
2022/03/03 04:46:23;;;;;;;15.87;5.67;;;;;;;;;;5074627;28;20024;-67
2022/03/03 04:48:50;;;;;;;19.27;6.97;;;;;;;;;;5074499;28;20023;-67
2022/03/03 04:51:17;;;;;;;18.63;4.90;;;;;;;;;;5070260;28;20032;-67
2022/03/03 04:53:44;;;;;;;18.57;4.63;;;;;;;;;;5068861;28;20028;-67
2022/03/03 04:56:10;;;;;;;7.80;4.23;;;;;;;;;;5069154;28;20028;-68
2022/03/03 04:58:40;;;;;;;14.13;5.60;;;;;;;;;;5068872;28;20032;-67
2022/03/03 05:01:06;;;;;;;11.20;4.87;;;;;;;;;;5072060;28;20557;-66
2022/03/03 05:03:34;;;;;;;14.53;5.67;;;;;;;;;;5074410;28;20020;-66
2022/03/03 05:06:01;;;;;;;12.60;4.17;;;;;;;;;;5073993;28;20426;-66
2022/03/03 05:08:28;;;;;;;8.80;3.33;;;;;;;;;;5072912;28;20043;-66
2022/03/03 05:10:54;;;;;;;12.03;4.90;;;;;;;;;;5073482;28;20044;-66
2022/03/03 05:13:21;;;;;;;11.67;4.53;;;;;;;;;;5070679;28;20020;-67
2022/03/03 05:15:48;;;;;;;18.00;6.70;;;;;;;;;;5068463;28;20028;-67
2022/03/03 05:18:15;;;;;;;15.43;6.50;;;;;;;;;;5068714;28;20574;-67
2022/03/03 05:20:42;;;;;;;17.63;7.07;;;;;;;;;;5068397;28;20284;-67
2022/03/03 05:23:09;;;;;;;11.20;4.93;;;;;;;;;;5071590;28;20028;-66
2022/03/03 05:25:36;;;;;;;15.47;4.73;;;;;;;;;;5073789;28;20085;-66
2022/03/03 05:28:03;;;;;;;9.57;4.03;;;;;;;;;;5073579;28;20016;-67
2022/03/03 05:30:29;;;;;;;8.60;4.10;;;;;;;;;;5073380;28;20105;-67
2022/03/03 05:32:57;;;;;;;12.83;4.27;;;;;;;;;;5073790;28;20027;-66
2022/03/03 05:35:25;;;;;;;13.70;4.57;;;;;;;;;;5070214;28;20086;-66
2022/03/03 05:37:52;;;;;;;11.93;4.57;;;;;;;;;;5068696;28;20058;-66
2022/03/03 05:40:19;;;;;;;10.93;5.13;;;;;;;;;;5068497;28;20030;-66
2022/03/03 05:42:45;;;;;;;15.17;6.53;;;;;;;;;;5068593;28;20029;-66
2022/03/03 05:45:13;;;;;;;15.90;6.17;;;;;;;;;;5068765;28;20012;-72
2022/03/03 05:47:40;;;;;;;15.30;7.30;;;;;;;;;;5063937;28;20025;-70
2022/03/03 05:50:08;;;;;;;14.17;6.50;;;;;;;;;;5064833;28;20108;-77
2022/03/03 05:52:34;;;;;;;10.53;5.17;;;;;;;;;;5073045;28;20037;-72
2022/03/03 05:55:01;;;;;;;13.87;6.33;;;;;;;;;;5073233;28;20099;-73
2022/03/03 05:57:36;;;;;;;15.93;6.10;;;;;;;;;;5070595;28;20107;-70
2022/03/03 06:00:06;;;;;;;12.87;5.27;;;;;;;;;;5068191;28;20059;-74
2022/03/03 06:02:33;;;;;;;18.07;7.10;;;;;;;;;;5059539;28;20476;-72
2022/03/03 06:05:03;;;;;;;16.03;6.53;;;;;;;;;;5047910;28;20025;-72
2022/03/03 06:07:30;;;;;;;15.27;6.80;;;;;;;;;;5054346;28;20032;-71
2022/03/03 06:09:58;;;;;;;12.20;5.57;;;;;;;;;;5072976;28;20032;-69
2022/03/03 06:12:27;;;;;;;8.50;4.37;;;;;;;;;;5072923;28;20530;-69
2022/03/03 06:14:55;;;;;;;9.93;4.63;;;;;;;;;;5072718;28;20074;-69
2022/03/03 06:17:25;;;;;;;14.80;4.40;;;;;;;;;;5072760;28;20036;-69
2022/03/03 06:19:52;;;;;;;20.60;5.37;;;;;;;;;;5069610;28;20025;-69
2022/03/03 06:22:20;;;;;;;10.80;5.30;;;;;;;;;;5067330;28;20020;-69
2022/03/03 06:24:48;;;;;;;11.63;4.80;;;;;;;;;;5067678;28;20412;-68
2022/03/03 06:27:15;;;;;;;10.23;4.27;;;;;;;;;;5067712;28;20031;-70
2022/03/03 06:29:42;;;;;;;10.77;4.53;;;;;;;;;;5070011;28;20020;-71
2022/03/03 06:32:09;;;;;;;10.13;4.27;;;;;;;;;;5072653;28;20043;-71
2022/03/03 06:34:36;;;;;;;6.73;3.77;;;;;;;;;;5072647;28;20055;-72
2022/03/03 06:37:03;;;;;;;9.77;4.40;;;;;;;;;;5072366;28;20477;-71
2022/03/03 06:39:30;;;;;;;5.93;3.27;;;;;;;;;;5072482;28;20043;-72
2022/03/03 06:41:57;;;;;;;7.87;4.40;;;;;;;;;;5069626;28;20031;-70
2022/03/03 06:44:24;;;;;;;12.03;5.03;;;;;;;;;;5067226;28;20024;-70
2022/03/03 06:46:51;;;;;;;10.43;4.97;;;;;;;;;;5067063;28;20016;-70
2022/03/03 06:49:17;;;;;;;9.87;4.63;;;;;;;;;;5067079;28;20060;-70
2022/03/03 06:51:49;;;;;;;6.57;3.70;;;;;;;;;;5068971;28;20365;-70
2022/03/03 06:54:17;;;;;;;11.50;4.13;;;;;;;;;;5072454;28;20019;-70
2022/03/03 06:56:48;;;;;;;9.20;4.50;;;;;;;;;;5070880;28;20547;-70
2022/03/03 06:59:16;;;;;;;11.27;3.70;;;;;;;;;;5071688;28;20063;-71
2022/03/03 07:01:43;;;;;;;8.03;4.03;;;;;;;;;;5072324;28;20021;-70
2022/03/03 07:04:13;;;;;;;4.17;2.43;;;;;;;;;;5069439;28;20098;-70
2022/03/03 07:06:40;;;;;;;9.37;4.10;;;;;;;;;;5067041;28;20075;-70
2022/03/03 07:09:08;;;;;;;12.87;3.47;;;;;;;;;;5066747;28;20039;-69
2022/03/03 07:11:35;;;;;;;6.27;3.17;;;;;;;;;;5066562;28;20037;-70
2022/03/03 07:14:01;;;;;;;10.03;3.13;;;;;;;;;;5068490;28;20028;-70
2022/03/03 07:16:37;;;;;;;8.37;3.50;;;;;;;;;;5072099;28;20020;-70
2022/03/03 07:19:05;;;;;;;7.27;3.37;;;;;;;;;;5074677;28;20387;-69
2022/03/03 07:21:38;;;;;;;8.60;4.30;;;;;;;;;;5076170;28;20054;-69
2022/03/03 07:24:10;;;;;;;8.43;3.77;;;;;;;;;;5076088;28;20021;-70
2022/03/03 07:26:38;;;;;;;11.87;3.90;;;;;;;;;;5072196;28;20111;-70
2022/03/03 07:29:05;;;;;;;11.97;4.60;;;;;;;;;;5070643;28;20119;-69
2022/03/03 07:31:35;;;;;;;10.17;3.50;;;;;;;;;;5070294;28;20040;-70
2022/03/03 07:34:02;;;;;;;5.63;2.93;;;;;;;;;;5070690;28;20021;-69
2022/03/03 07:36:30;;;;;;;7.70;4.07;;;;;;;;;;5073437;28;20077;-69
2022/03/03 07:39:06;;;;;;;11.33;4.63;;;;;;;;;;5075837;28;20099;-69
2022/03/03 07:41:33;;;;;;;12.90;4.17;;;;;;;;;;5075924;28;20039;-69
2022/03/03 07:44:00;;;;;;;10.33;4.70;;;;;;;;;;5075630;28;20049;-70
2022/03/03 07:46:28;;;;;;;8.43;4.20;;;;;;;;;;5075745;28;20442;-69
2022/03/03 07:48:56;;;;;;;7.60;4.20;;;;;;;;;;5071627;28;20066;-69
2022/03/03 07:51:23;;;;;;;11.17;4.47;;;;;;;;;;5070380;28;20472;-69
2022/03/03 07:53:50;;;;;;;6.23;3.33;;;;;;;;;;5069803;28;20025;-70
2022/03/03 07:56:29;;;;;;;6.37;3.43;;;;;;;;;;5070277;28;20103;-69
2022/03/03 07:59:01;;;;;;;10.13;4.30;;;;;;;;;;5073346;28;20399;-69
2022/03/03 08:01:29;;;;;;;8.90;3.60;;;;;;;;;;5075175;28;20027;-69
2022/03/03 08:03:57;;;;;;;11.37;4.30;;;;;;;;;;5075317;28;20024;-69
2022/03/03 08:06:24;;;;;;;10.53;3.70;;;;;;;;;;5074522;28;20103;-69
2022/03/03 08:08:53;;;;;;;5.57;3.00;;;;;;;;;;5075251;28;20479;-69
2022/03/03 08:11:20;;;;;;;5.67;3.00;;;;;;;;;;5070935;28;20036;-69
2022/03/03 08:13:50;;;;;;;7.67;4.07;;;;;;;;;;5069904;28;20052;-69
2022/03/03 08:16:17;;;;;;;6.50;3.23;;;;;;;;;;5069961;28;20021;-69
2022/03/03 08:18:43;;;;;;;7.53;3.30;;;;;;;;;;5069671;28;20048;-69
2022/03/03 08:21:11;;;;;;;9.60;4.17;;;;;;;;;;5072761;28;20409;-69
2022/03/03 08:23:37;;;;;;;6.17;3.17;;;;;;;;;;5074889;28;20023;-69
2022/03/03 08:26:04;;;;;;;5.90;3.10;;;;;;;;;;5074982;28;20103;-69
2022/03/03 08:28:32;;;;;;;5.83;3.57;;;;;;;;;;5074457;28;20029;-69
2022/03/03 08:30:58;;;;;;;8.00;3.27;;;;;;;;;;5074724;28;20060;-69
2022/03/03 08:33:36;;;;;;;6.57;3.20;;;;;;;;;;5071095;28;20266;-69
2022/03/03 08:36:07;;;;;;;7.13;4.07;;;;;;;;;;5069555;28;20818;-69
2022/03/03 08:38:35;;;;;;;8.80;4.43;;;;;;;;;;5069552;28;20280;-69
2022/03/03 08:41:02;;;;;;;7.97;3.80;;;;;;;;;;5069207;28;20336;-69
2022/03/03 08:43:31;;;;;;;5.77;3.00;;;;;;;;;;5072929;28;20689;-69
2022/03/03 08:46:02;;;;;;;5.50;3.13;;;;;;;;;;5074555;28;20035;-69
2022/03/03 08:48:31;;;;;;;5.77;3.43;;;;;;;;;;5074076;28;20272;-69
2022/03/03 08:50:59;;;;;;;6.17;3.97;;;;;;;;;;5074195;28;20291;-69
2022/03/03 08:53:26;;;;;;;8.30;3.33;;;;;;;;;;5074325;28;20032;-69
2022/03/03 08:56:00;;;;;;;5.67;3.50;;;;;;;;;;5070027;28;20052;-69
2022/03/03 08:58:27;;;;;;;9.00;3.83;;;;;;;;;;5068846;28;20263;-68
2022/03/03 09:00:54;;;;;;;8.07;3.80;;;;;;;;;;5068615;28;20832;-70
2022/03/03 09:03:24;;;;;;;15.37;5.20;;;;;;;;;;5069097;28;20336;-69
2022/03/03 09:05:51;;;;;;;15.03;6.33;;;;;;;;;;5073072;28;20289;-69
2022/03/03 09:08:18;;;;;;;14.07;6.40;;;;;;;;;;5073668;28;20349;-69
2022/03/03 09:10:45;;;;;;;18.03;7.20;;;;;;;;;;5073958;28;20317;-69
2022/03/03 09:13:12;;;;;;;9.93;5.57;;;;;;;;;;5073946;28;20803;-68
2022/03/03 09:15:39;;;;;;;8.93;4.40;;;;;;;;;;5073658;28;20271;-71
2022/03/03 09:18:05;;;;;;;7.33;4.03;;;;;;;;;;5069512;28;20299;-69
2022/03/03 09:20:33;;;;;;;9.53;4.47;;;;;;;;;;5068581;28;20356;-69
2022/03/03 09:23:00;;;;;;;7.33;4.00;;;;;;;;;;5068420;28;20787;-69
2022/03/03 09:25:27;;;;;;;8.33;4.53;;;;;;;;;;5068358;28;20302;-69
2022/03/03 09:27:54;;;;;;;7.53;4.50;;;;;;;;;;5072022;28;20817;-69
2022/03/03 09:30:21;;;;;;;8.70;4.30;;;;;;;;;;5073712;28;20264;-69
2022/03/03 09:32:48;;;;;;;7.43;3.83;;;;;;;;;;5073567;28;20268;-69
2022/03/03 09:35:15;;;;;;;9.60;4.73;;;;;;;;;;5073242;28;20340;-69
2022/03/03 09:37:42;;;;;;;11.37;5.03;;;;;;;;;;5073475;28;20254;-69
2022/03/03 09:40:09;;;;;;;10.27;3.77;;;;;;;;;;5068922;28;20265;-69
2022/03/03 09:42:36;;;;;;;9.17;4.20;;;;;;;;;;5067875;28;20260;-69
2022/03/03 09:45:04;;;;;;;8.43;4.30;;;;;;;;;;5067875;28;20338;-69
2022/03/03 09:47:31;;;;;;;7.40;3.90;;;;;;;;;;5047898;28;20258;-69
2022/03/03 09:49:57;;;;;;;8.17;4.33;;;;;;;;;;5051394;28;20345;-69
2022/03/03 09:52:24;;;;;;;17.83;6.23;;;;;;;;;;5053316;28;20282;-69
2022/03/03 09:54:54;;;;;;;9.17;5.70;;;;;;;;;;5053195;28;20610;-69
2022/03/03 09:57:21;;;;;;;16.10;5.47;;;;;;;;;;5053233;28;20258;-69
2022/03/03 09:59:48;;;;;;;17.23;5.90;;;;;;;;;;5053001;28;20274;-69
2022/03/03 10:02:15;;;;;;;10.80;5.13;;;;;;;;;;5066817;28;20297;-69
2022/03/03 10:04:42;;;;;;;10.07;5.03;;;;;;;;;;5067773;28;20253;-70
2022/03/03 10:07:10;;;;;;;12.77;5.67;;;;;;;;;;5083475;28;20612;-69
2022/03/03 10:10:23;;;;;;;8.13;3.97;;;;;;;;;;5067719;28;20809;-69
2022/03/03 10:12:30;;;;;;;7.37;3.90;;;;;;;;;;5059854;28;20644;-69
2022/03/03 10:15:00;;;;;;;7.60;4.10;;;;;;;;;;5072906;28;20348;-69
2022/03/03 10:17:37;;;;;;;8.10;4.57;;;;;;;;;;5071126;28;20632;-69
2022/03/03 10:20:05;;;;;;;10.73;5.20;;;;;;;;;;5072810;28;20743;-69
2022/03/03 10:22:39;;;;;;;6.07;3.60;;;;;;;;;;5072783;28;20241;-69
2022/03/03 10:25:07;;;;;;;10.63;3.40;;;;;;;;;;5067491;28;20257;-69
2022/03/03 10:27:34;;;;;;;15.53;6.37;;;;;;;;;;5067403;28;20293;-69
2022/03/03 10:30:03;;;;;;;7.63;4.00;;;;;;;;;;5067167;28;20351;-69
2022/03/03 10:32:30;;;;;;;5.03;2.87;;;;;;;;;;5067179;28;20297;-69
2022/03/03 10:35:02;;;;;;;5.90;3.57;;;;;;;;;;5071870;28;20401;-69
2022/03/03 10:37:32;;;;;;;7.13;3.77;;;;;;;;;;5072293;28;20332;-69
2022/03/03 10:40:00;;;;;;;9.87;5.57;;;;;;;;;;5072525;28;20295;-69
2022/03/03 10:42:28;;;;;;;6.33;3.50;;;;;;;;;;5072541;28;20336;-69
2022/03/03 10:45:16;;;;;;;7.43;3.43;;;;;;;;;;5071831;28;20264;-69
2022/03/03 10:48:03;;;;;;;7.47;4.27;;;;;;;;;;5043937;28;20274;-69
2022/03/03 10:50:48;;;;;;;5.67;3.13;;;;;;;;;;5044295;28;20785;-69
2022/03/03 10:53:18;;;;;;;8.10;4.37;;;;;;;;;;5044336;28;20266;-69
2022/03/03 10:56:01;;;;;;;8.17;4.47;;;;;;;;;;5046312;28;20258;-69
2022/03/03 10:58:46;;;;;;;6.97;4.20;;;;;;;;;;5049777;28;20606;-69
2022/03/03 11:01:13;;;;;;;10.82;3.70;;;;;;;;;;5049893;28;20258;-70
2022/03/03 11:03:41;;;;;;;8.10;3.80;;;;;;;;;;5050183;28;20078;-69
2022/03/03 11:06:08;;;;;;;6.23;3.77;;;;;;;;;;5050076;28;20269;-68
2022/03/03 11:08:37;;;;;;;9.00;3.60;;;;;;;;;;5046237;28;20320;-69
2022/03/03 11:11:04;;;;;;;5.33;3.23;;;;;;;;;;5044081;28;20376;-68
2022/03/03 11:13:31;;;;;;;9.53;4.07;;;;;;;;;;5043896;28;20273;-69
2022/03/03 11:15:57;;;;;;;8.23;4.77;;;;;;;;;;5044333;28;20270;-69
2022/03/03 11:18:25;;;;;;;6.53;4.20;;;;;;;;;;5055651;28;20266;-68
2022/03/03 11:20:51;;;;;;;9.73;4.83;;;;;;;;;;5071958;28;20299;-69
2022/03/03 11:23:18;;;;;;;9.27;4.23;;;;;;;;;;5071919;28;20299;-68
2022/03/03 11:25:47;;;;;;;6.93;3.47;;;;;;;;;;5071910;28;20250;-68
2022/03/03 11:28:15;;;;;;;10.07;3.63;;;;;;;;;;5072053;28;20815;-68
2022/03/03 11:30:45;;;;;;;7.37;3.73;;;;;;;;;;5068306;28;20293;-69
2022/03/03 11:33:20;;;;;;;6.70;3.70;;;;;;;;;;5066942;28;20790;-69
2022/03/03 11:35:51;;;;;;;6.78;3.65;;;;;;;;;;5066626;28;20249;-69
2022/03/03 11:38:18;;;;;;;6.23;3.40;;;;;;;;;;5066435;28;20024;-69
2022/03/03 11:41:03;;;;;;;7.30;3.90;;;;;;;;;;5069716;28;20254;-68
2022/03/03 11:43:30;;;;;;;6.40;3.53;;;;;;;;;;5071663;28;20379;-68
2022/03/03 11:45:58;;;;;;;7.70;3.53;;;;;;;;;;5071823;28;20328;-68
2022/03/03 11:48:25;;;;;;;7.40;3.67;;;;;;;;;;5071535;28;20265;-69
2022/03/03 11:50:53;;;;;;;5.77;3.40;;;;;;;;;;5071668;28;20287;-68
2022/03/03 11:53:21;;;;;;;6.30;3.37;;;;;;;;;;5068315;28;20241;-68
2022/03/03 11:56:14;;;;;;;7.07;3.60;;;;;;;;;;5066058;28;20269;-68
2022/03/03 11:58:42;;;;;;;6.67;3.40;;;;;;;;;;5065187;28;20265;-69
2022/03/03 12:01:09;;;;;;;7.43;4.10;;;;;;;;;;5066297;28;20258;-69
2022/03/03 12:03:54;;;;;;;5.90;3.30;;;;;;;;;;5071512;28;20246;-68
2022/03/03 12:06:23;;;;;;;6.38;3.47;;;;;;;;;;5074975;28;20265;-69
2022/03/03 12:08:50;;;;;;;6.77;3.70;;;;;;;;;;5075295;28;20021;-69
2022/03/03 12:11:18;;;;;;;7.33;3.40;;;;;;;;;;5074952;28;20282;-68
2022/03/03 12:13:51;;;;;;;9.77;4.30;;;;;;;;;;5074660;28;20285;-68
2022/03/03 12:16:34;;;;;;;8.50;4.73;;;;;;;;;;5069486;28;20809;-69
2022/03/03 12:19:02;;;;;;;9.33;4.60;;;;;;;;;;5069943;28;20625;-68
2022/03/03 12:21:33;;;;;;;7.80;4.10;;;;;;;;;;5069804;28;20256;-69
2022/03/03 12:24:17;;;;;;;7.83;3.90;;;;;;;;;;5070376;28;20748;-68
2022/03/03 12:26:56;;;;;;;7.53;3.73;;;;;;;;;;5074987;28;20701;-68
2022/03/03 12:29:30;;;;;;;6.90;3.90;;;;;;;;;;5075049;28;20281;-69
2022/03/03 12:31:57;;;;;;;9.27;5.17;;;;;;;;;;5074641;28;20352;-69
2022/03/03 12:34:25;;;;;;;13.17;5.83;;;;;;;;;;5074526;28;20671;-69
2022/03/03 12:36:55;;;;;;;9.07;4.77;;;;;;;;;;5072102;28;20629;-69
2022/03/03 12:39:22;;;;;;;12.00;4.63;;;;;;;;;;5069346;28;20259;-69
2022/03/03 12:41:52;;;;;;;12.83;4.50;;;;;;;;;;5069257;28;20781;-69
2022/03/03 12:44:19;;;;;;;11.83;4.80;;;;;;;;;;5068896;28;20299;-69
2022/03/03 12:46:46;;;;;;;8.40;5.00;;;;;;;;;;5071609;28;20245;-68
2022/03/03 12:49:14;;;;;;;7.40;4.30;;;;;;;;;;5074114;28;20316;-69
2022/03/03 12:51:44;;;;;;;12.13;4.23;;;;;;;;;;5074401;28;20282;-69
2022/03/03 12:54:11;;;;;;;10.50;4.50;;;;;;;;;;5074342;28;20262;-69
2022/03/03 12:56:37;;;;;;;8.57;4.27;;;;;;;;;;5074374;28;20258;-69
2022/03/03 12:59:08;;;;;;;10.60;4.53;;;;;;;;;;5071454;28;20261;-69
2022/03/03 13:01:38;;;;;;;19.03;8.20;;;;;;;;;;5068629;28;20269;-71
2022/03/03 13:04:05;;;;;;;15.20;7.03;;;;;;;;;;5068868;28;20323;-69
2022/03/03 13:06:34;;;;;;;20.57;9.37;;;;;;;;;;5068772;28;20268;-68
2022/03/03 13:09:02;;;;;;;19.30;8.23;;;;;;;;;;5071346;28;20263;-68
2022/03/03 13:11:29;;;;;;;28.03;11.10;;;;;;;;;;5073964;28;20327;-68
2022/03/03 13:14:05;;;;;;;20.00;8.37;;;;;;;;;;5073968;28;20330;-69
2022/03/03 13:16:36;;;;;;;26.40;11.07;;;;;;;;;;5074038;28;20254;-68
2022/03/03 13:19:04;;;;;;;19.37;7.57;;;;;;;;;;5073816;28;20312;-68
2022/03/03 13:21:32;;;;;;;18.17;7.87;;;;;;;;;;5070481;28;20258;-69
2022/03/03 13:24:01;;;;;;;16.87;8.30;;;;;;;;;;5068390;28;20319;-69
2022/03/03 13:26:31;;;;;;;29.97;13.57;;;;;;;;;;5068499;28;20257;-69
2022/03/03 13:29:03;;;;;;;34.67;13.00;;;;;;;;;;5068479;28;20277;-68
2022/03/03 13:31:35;;;;;;;25.33;10.73;;;;;;;;;;5070873;28;20292;-68
2022/03/03 13:34:03;;;;;;;28.57;10.13;;;;;;;;;;5073580;28;20322;-68
2022/03/03 13:36:31;;;;;;;21.73;8.47;;;;;;;;;;5073610;28;20284;-68
2022/03/03 13:39:02;;;;;;;26.10;9.93;;;;;;;;;;5073021;28;20262;-71
2022/03/03 13:41:33;;;;;;;15.20;7.80;;;;;;;;;;5073334;28;20272;-69
2022/03/03 13:44:16;;;;;;;13.77;5.80;;;;;;;;;;5069335;28;20261;-68
2022/03/03 13:46:58;;;;;;;11.73;6.00;;;;;;;;;;5067864;28;20329;-69
2022/03/03 13:49:26;;;;;;;12.33;5.27;;;;;;;;;;5068285;28;20260;-68
2022/03/03 13:52:12;;;;;;;9.93;5.17;;;;;;;;;;5068045;28;20636;-67
2022/03/03 13:54:40;;;;;;;16.37;5.40;;;;;;;;;;5073287;28;20336;-67
2022/03/03 13:57:07;;;;;;;9.40;5.00;;;;;;;;;;5072598;28;20311;-70
2022/03/03 13:59:53;;;;;;;12.10;7.13;;;;;;;;;;5073253;28;20257;-67
2022/03/03 14:02:20;;;;;;;11.37;6.43;;;;;;;;;;5072901;28;20323;-68
2022/03/03 14:05:00;;;;;;;10.30;5.87;;;;;;;;;;5072029;28;20345;-68
2022/03/03 14:07:28;;;;;;;12.40;4.97;;;;;;;;;;5067468;28;20354;-68
2022/03/03 14:10:05;;;;;;;26.57;6.10;;;;;;;;;;5067788;28;20052;-68
2022/03/03 14:12:32;;;;;;;8.70;4.93;;;;;;;;;;5067401;28;20028;-68
2022/03/03 14:14:59;;;;;;;9.00;4.53;;;;;;;;;;5068960;28;20029;-68
2022/03/03 14:17:26;;;;;;;12.77;5.67;;;;;;;;;;5072470;28;20029;-68
2022/03/03 14:19:53;;;;;;;11.40;5.03;;;;;;;;;;5072343;28;20020;-68
2022/03/03 14:22:22;;;;;;;8.97;5.40;;;;;;;;;;5072744;28;20051;-69
2022/03/03 14:24:51;;;;;;;7.53;5.20;;;;;;;;;;5072854;28;20035;-69
2022/03/03 14:27:18;;;;;;;7.30;4.77;;;;;;;;;;5070172;28;20078;-70
2022/03/03 14:29:44;;;;;;;8.07;4.93;;;;;;;;;;5067429;28;20476;-69
2022/03/03 14:32:11;;;;;;;5.97;3.67;;;;;;;;;;5066816;28;20037;-69
2022/03/03 14:34:39;;;;;;;8.93;4.57;;;;;;;;;;5066262;28;20060;-70
2022/03/03 14:37:06;;;;;;;8.40;4.90;;;;;;;;;;5067970;28;20035;-69
2022/03/03 14:39:32;;;;;;;9.73;4.63;;;;;;;;;;5072317;28;20540;-70
2022/03/03 14:42:00;;;;;;;7.07;3.67;;;;;;;;;;5072383;28;20035;-70
2022/03/03 14:44:27;;;;;;;12.13;3.83;;;;;;;;;;5072226;28;20108;-70
2022/03/03 14:46:54;;;;;;;8.73;4.80;;;;;;;;;;5071756;28;20025;-70